»·PEaware :: XSR220 KAFW-TXKF

XSR220 :: KAFW-TXKF

FLIGHT INFORMATION

Flight Status: Arrived
Operator: Unknown
More flights by this operator :: More flights under this callsign
Pilot: Drew L. (13237)
Aircraft: BOEING 737-300
(B733)
More flights by this aircraft type
Origin: KAFW Ft Worth Alliance
United States
Destination: TXKF Bermuda Intl
Bermuda
More flights between these airports :: More routes between these airports
Route: DALL4 SQS Q30 VUZ J14 AJFEB J4 ILM PERDO M325 ENAPI MOMOM1
File this flight plan on PilotEdge
Remarks: PBN / A1B3B4B5D3D4 DOF / 180531 REG / N372SB EET / KZME0035 KZTL0106 KZJX0144 KZDC0206 KZNY0223 KZWY0234 OPR / XSR PER / C RMK / TCAS SIMBRIEF
Altitude:
(Current/Filed)
37,000ft
Speed:
(Current/Filed)
433kts
Departed: 31-May-18 01:50 PM
Arrived: 31-May-18 05:46 PM
Distance/Time
Traveled:
1642nm/3:56
Distance/Time
To Go:
Arrived

Flight Plot

Page will automatically refresh every two minutes.

Flight plan parsing failed; only flown route is shown


Map Options




Map Legend


Flown Route
Filed Route
Departure Airport
Arrival Airport
Navaid (VOR, NDB)
Fix

Horizontal Profiles

Position Reports

Time Latitude Longitude Heading Altitude Ground
Speed
31-May-18 13:25 32.987067 -97.314918 170 729ft 0kts
31-May-18 13:26 32.987067 -97.314918 170 729ft 0kts
31-May-18 13:27 32.987067 -97.314918 170 729ft 0kts
31-May-18 13:28 32.987067 -97.314918 170 729ft 0kts
31-May-18 13:29 32.987067 -97.314918 170 729ft 0kts
31-May-18 13:30 32.987067 -97.314918 170 729ft 0kts
31-May-18 13:31 32.987067 -97.314918 170 729ft 0kts
31-May-18 13:32 32.987067 -97.314918 170 729ft 0kts
31-May-18 13:33 32.987067 -97.314918 170 729ft 0kts
31-May-18 13:34 32.987067 -97.314918 170 729ft 0kts
31-May-18 13:35 32.987067 -97.314918 170 729ft 0kts
31-May-18 13:36 32.987067 -97.314918 170 729ft 0kts
31-May-18 13:37 32.987067 -97.314918 170 729ft 0kts
31-May-18 13:38 32.987067 -97.314918 170 729ft 0kts
31-May-18 13:39 32.987067 -97.314918 170 729ft 0kts
31-May-18 13:40 32.987067 -97.314918 170 729ft 0kts
31-May-18 13:41 32.987067 -97.314918 170 729ft 0kts
31-May-18 13:42 32.987067 -97.314918 170 729ft 0kts
31-May-18 13:43 32.987067 -97.314918 170 729ft 0kts
31-May-18 13:44 32.987067 -97.314918 169 729ft 0kts
31-May-18 13:45 32.987067 -97.314918 169 729ft 0kts
31-May-18 13:46 32.986877 -97.314974 219 729ft 8kts
31-May-18 13:47 32.989786 -97.317073 350 729ft 18kts
31-May-18 13:48 32.995980 -97.318334 350 729ft 26kts
31-May-18 13:49 32.997360 -97.319874 172 729ft 11kts
31-May-18 13:50 32.962838 -97.313303 171 2070ft 172kts
31-May-18 13:51 32.916437 -97.305673 173 5007ft 188kts
31-May-18 13:52 32.866648 -97.267657 114 7465ft 281kts
31-May-18 13:53 32.866605 -97.187005 76 9782ft 309kts
31-May-18 13:54 32.881801 -97.076726 82 11761ft 362kts
31-May-18 13:55 32.895323 -96.959438 82 14486ft 379kts
31-May-18 13:56 32.909577 -96.833272 82 17004ft 395kts
31-May-18 13:57 32.924143 -96.703042 82 19303ft 410kts
31-May-18 13:58 32.939262 -96.566511 81 21484ft 425kts
31-May-18 13:59 32.954636 -96.426234 81 23467ft 438kts
31-May-18 14:00 32.970407 -96.280619 81 25199ft 453kts
31-May-18 14:01 32.986533 -96.130130 81 26851ft 465kts
31-May-18 14:02 33.002941 -95.975267 81 28420ft 477kts
31-May-18 14:03 33.019250 -95.819374 80 30437ft 472kts
31-May-18 14:04 33.035274 -95.664384 80 32068ft 472kts
31-May-18 14:05 33.051095 -95.509428 80 33532ft 472kts
31-May-18 14:06 33.066706 -95.354602 79 34810ft 471kts
31-May-18 14:07 33.081975 -95.200827 80 35855ft 471kts
31-May-18 14:08 33.097173 -95.046194 80 36688ft 472kts
31-May-18 14:09 33.110748 -94.909359 80 36931ft 471kts
31-May-18 14:10 33.122498 -94.787168 80 36879ft 480kts
31-May-18 14:11 33.137613 -94.627371 80 36918ft 488kts
31-May-18 14:12 33.152510 -94.467404 80 36911ft 487kts
31-May-18 14:13 33.167269 -94.306653 81 36882ft 487kts
31-May-18 14:14 33.181752 -94.146394 81 36921ft 488kts
31-May-18 14:15 33.195968 -93.987106 80 36902ft 489kts
31-May-18 14:16 33.210117 -93.826169 80 36901ft 489kts
31-May-18 14:17 33.224074 -93.665039 80 36901ft 489kts
31-May-18 14:18 33.237838 -93.503688 80 36906ft 489kts
31-May-18 14:19 33.251350 -93.342789 81 36911ft 490kts
31-May-18 14:20 33.264686 -93.180982 81 36921ft 490kts
31-May-18 14:21 33.277825 -93.019400 81 36925ft 486kts
31-May-18 14:22 33.290533 -92.860629 81 36916ft 478kts
31-May-18 14:23 33.303021 -92.702156 81 36914ft 479kts
31-May-18 14:24 33.315274 -92.543941 81 36912ft 479kts
31-May-18 14:25 33.327315 -92.385868 81 36910ft 479kts
31-May-18 14:26 33.338362 -92.237966 82 36915ft 479kts
31-May-18 14:27 33.350045 -92.079372 82 36919ft 479kts
31-May-18 14:28 33.361546 -91.920495 82 36919ft 480kts
31-May-18 14:29 33.372797 -91.762261 82 36920ft 480kts
31-May-18 14:30 33.383885 -91.603419 82 36919ft 480kts
31-May-18 14:31 33.394778 -91.444451 82 36920ft 480kts
31-May-18 14:32 33.405346 -91.286954 82 36915ft 479kts
31-May-18 14:33 33.415764 -91.128746 82 36952ft 475kts
31-May-18 14:34 33.425772 -90.973936 83 36935ft 459kts
31-May-18 14:35 33.435390 -90.822507 83 36934ft 458kts
31-May-18 14:36 33.444851 -90.670394 83 36939ft 459kts
31-May-18 14:37 33.454110 -90.518531 83 36955ft 459kts
31-May-18 14:38 33.463198 -90.366421 83 36962ft 459kts
31-May-18 14:39 33.469776 -90.215130 85 36967ft 460kts
31-May-18 14:40 33.479797 -90.063408 82 36964ft 459kts
31-May-18 14:41 33.490996 -89.911393 82 36964ft 459kts
31-May-18 14:42 33.502010 -89.758973 82 36965ft 459kts
31-May-18 14:43 33.512783 -89.607287 82 36965ft 459kts
31-May-18 14:44 33.523412 -89.454982 82 36968ft 459kts
31-May-18 14:45 33.533723 -89.304405 83 36958ft 459kts
31-May-18 14:46 33.543949 -89.152216 83 36995ft 459kts
31-May-18 14:47 33.553993 -89.000208 83 37002ft 457kts
31-May-18 14:48 33.563615 -88.851750 83 36985ft 438kts
31-May-18 14:49 33.572831 -88.707148 84 36986ft 436kts
31-May-18 14:50 33.581875 -88.562370 84 36987ft 437kts
31-May-18 14:51 33.590787 -88.417000 84 36983ft 436kts
31-May-18 14:52 33.599319 -88.274870 85 36982ft 436kts
31-May-18 14:53 33.607872 -88.129743 85 36983ft 437kts
31-May-18 14:54 33.616246 -87.984839 85 36990ft 436kts
31-May-18 14:55 33.624472 -87.839556 85 37006ft 437kts
31-May-18 14:56 33.632515 -87.694450 85 37009ft 437kts
31-May-18 14:57 33.640380 -87.549505 85 37008ft 437kts
31-May-18 14:58 33.648099 -87.404085 85 37003ft 437kts
31-May-18 14:59 33.655610 -87.259076 85 37010ft 436kts
31-May-18 15:00 33.662975 -87.113842 85 37022ft 437kts
31-May-18 15:01 33.670177 -86.968482 84 37030ft 437kts
31-May-18 15:02 33.670493 -86.822906 89 37038ft 438kts
31-May-18 15:03 33.668516 -86.676914 88 37038ft 438kts
31-May-18 15:04 33.667352 -86.531002 87 37032ft 438kts
31-May-18 15:05 33.666007 -86.385502 88 37007ft 437kts
31-May-18 15:06 33.664525 -86.243395 88 37003ft 437kts
31-May-18 15:07 33.662843 -86.097838 88 37004ft 437kts
31-May-18 15:08 33.660990 -85.952290 88 37016ft 438kts
31-May-18 15:09 33.658962 -85.806412 88 37020ft 437kts
31-May-18 15:10 33.656762 -85.660483 88 37020ft 437kts
31-May-18 15:11 33.654397 -85.514959 88 37056ft 438kts
31-May-18 15:12 33.651855 -85.369087 88 37084ft 438kts
31-May-18 15:13 33.649141 -85.223345 89 37085ft 438kts
31-May-18 15:14 33.646228 -85.075695 90 37076ft 451kts
31-May-18 15:15 33.643082 -84.926021 92 37080ft 443kts
31-May-18 15:16 33.639806 -84.778833 92 37049ft 444kts
31-May-18 15:17 33.636348 -84.631034 92 37039ft 443kts
31-May-18 15:18 33.632729 -84.483928 92 37044ft 443kts
31-May-18 15:19 33.633332 -84.336006 88 37023ft 445kts
31-May-18 15:20 33.639704 -84.188892 88 37045ft 445kts
31-May-18 15:21 33.645678 -84.040629 88 37046ft 444kts
31-May-18 15:22 33.651704 -83.892972 88 37047ft 444kts
31-May-18 15:23 33.657564 -83.745180 88 37047ft 444kts
31-May-18 15:24 33.663243 -83.597468 88 37037ft 444kts
31-May-18 15:25 33.668763 -83.449309 88 37028ft 444kts
31-May-18 15:26 33.674073 -83.302011 89 37006ft 444kts
31-May-18 15:27 33.679219 -83.154367 89 37026ft 444kts
31-May-18 15:28 33.684200 -83.006454 89 37018ft 445kts
31-May-18 15:29 33.689039 -82.857360 90 37020ft 450kts
31-May-18 15:30 33.693743 -82.706937 90 37032ft 452kts
31-May-18 15:31 33.698262 -82.556513 90 37051ft 451kts
31-May-18 15:32 33.702607 -82.405778 90 37057ft 452kts
31-May-18 15:33 33.706740 -82.256323 90 37053ft 451kts
31-May-18 15:34 33.714870 -82.106079 83 37030ft 454kts
31-May-18 15:35 33.735912 -81.957135 82 37030ft 454kts
31-May-18 15:36 33.756613 -81.807823 82 37046ft 455kts
31-May-18 15:37 33.777124 -81.658494 82 37047ft 454kts
31-May-18 15:38 33.797481 -81.508918 82 37034ft 454kts
31-May-18 15:39 33.817722 -81.358763 82 36998ft 454kts
31-May-18 15:40 33.837444 -81.210896 83 36998ft 454kts
31-May-18 15:41 33.857300 -81.060927 82 37002ft 454kts
31-May-18 15:42 33.894940 -80.916422 72 37000ft 454kts
31-May-18 15:43 33.934409 -80.772735 73 37000ft 453kts
31-May-18 15:44 33.973851 -80.628820 73 36994ft 453kts
31-May-18 15:45 34.012894 -80.485156 73 36989ft 453kts
31-May-18 15:46 34.045464 -80.365134 73 36992ft 453kts
31-May-18 15:47 34.084208 -80.221102 73 36993ft 453kts
31-May-18 15:48 34.123126 -80.076626 73 36992ft 452kts
31-May-18 15:49 34.161677 -79.932371 73 36992ft 453kts
31-May-18 15:50 34.200042 -79.787689 73 36992ft 453kts
31-May-18 15:51 34.235963 -79.642619 85 36986ft 449kts
31-May-18 15:52 34.246935 -79.467663 86 36986ft 449kts
31-May-18 15:53 34.257831 -79.318675 87 36947ft 450kts
31-May-18 15:54 34.266502 -79.193471 87 36985ft 449kts
31-May-18 15:55 34.277089 -79.042349 87 36987ft 458kts
31-May-18 15:56 34.287533 -78.888023 87 37002ft 465kts
31-May-18 15:57 34.298090 -78.732611 87 36991ft 464kts
31-May-18 15:58 34.308122 -78.577740 88 36994ft 464kts
31-May-18 15:59 34.318192 -78.422396 87 36998ft 464kts
31-May-18 16:00 34.327722 -78.273458 88 37004ft 463kts
31-May-18 16:01 34.337488 -78.117804 88 37012ft 464kts
31-May-18 16:02 34.346992 -77.963115 88 37011ft 463kts
31-May-18 16:03 34.348074 -77.808607 99 37013ft 459kts
31-May-18 16:04 34.336501 -77.655103 98 37009ft 460kts
31-May-18 16:05 34.325715 -77.501528 98 37006ft 459kts
31-May-18 16:06 34.314732 -77.348015 98 37004ft 459kts
31-May-18 16:07 34.303578 -77.194478 98 37008ft 459kts
31-May-18 16:08 34.292195 -77.040933 98 37025ft 459kts
31-May-18 16:09 34.280560 -76.886712 97 37028ft 464kts
31-May-18 16:10 34.268615 -76.730893 97 37033ft 467kts
31-May-18 16:11 34.256306 -76.573072 97 37037ft 475kts
31-May-18 16:12 34.243736 -76.414496 97 37028ft 474kts
31-May-18 16:13 34.231003 -76.256159 98 37029ft 474kts
31-May-18 16:14 34.218052 -76.098012 98 37030ft 474kts
31-May-18 16:15 34.204860 -75.939506 98 37029ft 474kts
31-May-18 16:16 34.191492 -75.781366 98 37029ft 474kts
31-May-18 16:17 34.177925 -75.623319 98 37029ft 474kts
31-May-18 16:18 34.164165 -75.465447 98 37030ft 474kts
31-May-18 16:19 34.150200 -75.307384 99 36996ft 474kts
31-May-18 16:20 34.136212 -75.151317 99 37030ft 474kts
31-May-18 16:21 34.121984 -74.995077 97 37032ft 473kts
31-May-18 16:22 34.107511 -74.838436 96 37029ft 467kts
31-May-18 16:23 34.092929 -74.682966 96 37029ft 468kts
31-May-18 16:24 34.078082 -74.526689 96 37030ft 468kts
31-May-18 16:25 34.063102 -74.371151 96 37040ft 469kts
31-May-18 16:26 34.047928 -74.215539 97 37030ft 468kts
31-May-18 16:27 34.032527 -74.059870 97 37030ft 468kts
31-May-18 16:28 34.016923 -73.904178 97 37030ft 468kts
31-May-18 16:29 34.001134 -73.748583 97 37031ft 468kts
31-May-18 16:30 33.985108 -73.592778 97 37030ft 468kts
31-May-18 16:31 33.968942 -73.437509 97 37030ft 468kts
31-May-18 16:32 33.952616 -73.282519 97 37021ft 468kts
31-May-18 16:33 33.936071 -73.127405 97 37038ft 466kts
31-May-18 16:34 33.919562 -72.974543 97 37028ft 457kts
31-May-18 16:35 33.903062 -72.823536 97 37027ft 456kts
31-May-18 16:36 33.886060 -72.672361 97 37030ft 456kts
31-May-18 16:37 33.869154 -72.521259 97 37029ft 456kts
31-May-18 16:38 33.852055 -72.370040 97 37029ft 456kts
31-May-18 16:39 33.834849 -72.219260 97 37031ft 457kts
31-May-18 16:40 33.817400 -72.068329 97 37029ft 456kts
31-May-18 16:41 33.799772 -71.917503 97 37029ft 456kts
31-May-18 16:42 33.781917 -71.766467 97 37029ft 456kts
31-May-18 16:43 33.763919 -71.615721 97 37029ft 456kts
31-May-18 16:44 33.745746 -71.465129 97 37028ft 456kts
31-May-18 16:45 33.727491 -71.315329 98 36992ft 457kts
31-May-18 16:46 33.709030 -71.165261 98 37030ft 456kts
31-May-18 16:47 33.688996 -71.014985 104 37025ft 456kts
31-May-18 16:48 33.661041 -70.865741 99 37031ft 460kts
31-May-18 16:49 33.638095 -70.715156 98 37030ft 460kts
31-May-18 16:50 33.614876 -70.564464 98 37029ft 460kts
31-May-18 16:51 33.591507 -70.414049 98 37029ft 460kts
31-May-18 16:52 33.567962 -70.263551 99 37035ft 460kts
31-May-18 16:53 33.544184 -70.112970 99 37084ft 460kts
31-May-18 16:54 33.520262 -69.962773 99 37104ft 460kts
31-May-18 16:55 33.496162 -69.812769 99 37103ft 460kts
31-May-18 16:56 33.471806 -69.662419 99 37103ft 460kts
31-May-18 16:57 33.447256 -69.512057 99 37103ft 460kts
31-May-18 16:58 33.422565 -69.362073 99 37103ft 460kts
31-May-18 16:59 33.397747 -69.212197 99 37104ft 460kts
31-May-18 17:00 33.372669 -69.062183 99 37098ft 461kts
31-May-18 17:01 33.347238 -68.911223 97 37106ft 466kts
31-May-18 17:02 33.321486 -68.759526 97 37103ft 466kts
31-May-18 17:03 33.295594 -68.608177 97 37103ft 466kts
31-May-18 17:04 33.269423 -68.456379 97 37103ft 466kts
31-May-18 17:05 33.243410 -68.306558 98 37072ft 466kts
31-May-18 17:06 33.216957 -68.155322 98 37104ft 466kts
31-May-18 17:07 33.201798 -68.003132 87 37103ft 461kts
31-May-18 17:08 33.196008 -67.850252 88 37103ft 461kts
31-May-18 17:09 33.189760 -67.697860 88 37103ft 461kts
31-May-18 17:10 33.183317 -67.545158 88 37103ft 461kts
31-May-18 17:11 33.176708 -67.392943 88 37103ft 461kts
31-May-18 17:12 33.169873 -67.240077 88 37105ft 462kts
31-May-18 17:13 33.162880 -67.087461 88 37105ft 459kts
31-May-18 17:14 33.155064 -66.936091 89 37102ft 456kts
31-May-18 17:15 33.147728 -66.785897 88 37075ft 456kts
31-May-18 17:16 33.140251 -66.635044 88 37075ft 456kts
31-May-18 17:17 33.132580 -66.484065 88 37077ft 456kts
31-May-18 17:18 33.124750 -66.333487 89 37047ft 457kts
31-May-18 17:19 33.116773 -66.184029 89 36051ft 448kts
31-May-18 17:20 33.108932 -66.039857 89 33827ft 433kts
31-May-18 17:21 33.100886 -65.894770 89 30493ft 443kts
31-May-18 17:22 33.092578 -65.748533 90 27115ft 447kts
31-May-18 17:23 33.084068 -65.601970 90 24005ft 436kts
31-May-18 17:24 33.075810 -65.462448 91 22032ft 399kts
31-May-18 17:25 33.068187 -65.335316 91 20070ft 379kts
31-May-18 17:26 33.042147 -65.219150 132 17924ft 370kts
31-May-18 17:27 32.972471 -65.132006 133 15853ft 357kts
31-May-18 17:28 32.905986 -65.047529 133 13852ft 344kts
31-May-18 17:29 32.841419 -64.965836 133 11839ft 334kts
31-May-18 17:30 32.779184 -64.887043 131 9922ft 322kts
31-May-18 17:31 32.719835 -64.812041 130 8574ft 291kts
31-May-18 17:32 32.669744 -64.748873 130 7938ft 247kts
31-May-18 17:33 32.623695 -64.690845 131 6377ft 236kts
31-May-18 17:34 32.579796 -64.635634 131 4955ft 221kts
31-May-18 17:35 32.539846 -64.585473 131 3918ft 202kts
31-May-18 17:36 32.504255 -64.540852 131 3092ft 179kts
31-May-18 17:37 32.470170 -64.496838 129 2681ft 181kts
31-May-18 17:38 32.436799 -64.452452 129 2182ft 179kts
31-May-18 17:39 32.401053 -64.411973 138 2058ft 176kts
31-May-18 17:40 32.358216 -64.427481 235 2079ft 195kts
31-May-18 17:41 32.331846 -64.483237 265 2059ft 190kts
31-May-18 17:42 32.339025 -64.533180 279 1985ft 140kts
31-May-18 17:43 32.346858 -64.577775 281 1495ft 138kts
31-May-18 17:44 32.354590 -64.623922 279 827ft 143kts
31-May-18 17:45 32.362000 -64.666856 281 25ft 131kts
31-May-18 17:46 32.364808 -64.683166 281 19ft 21kts
31-May-18 17:47 32.368842 -64.686855 317 19ft 0kts
31-May-18 17:48 32.368842 -64.686855 317 19ft 0kts

Navigation Log

Ident Type
Flight plan parsing failed, navigation log unavailable